Nearby METAR Reports

 

EBAW - Antwerpen, Belgium
Distance from station: NW 22km
Updated: 2020-07-06 19:20
Partly cloudy
Partly cloudy
 Wind from NW
Wind: NW 22 km/h
Temperature: 17°C
Dew Point: 9°C
Humidity: 59%
Barometer: 1020 hPa
Clouds: Partly cloudy
Visibility: 10 km
Cloud details: Partly cloudy 1219 m
2020/07/06 17:20 EBAW 061720Z 31012KT 270V330 9999 SCT040 17/09 Q1020 NOSIG
EBBR - Brussel, Belgium
Distance from station: SW 24km
Updated: 2020-07-06 19:20
Few Clouds
Few Clouds
 Wind from NW
Wind: NW 26 km/h
Temperature: 17°C
Dew Point: 7°C
Humidity: 52%
Barometer: 1021 hPa
Clouds: Few Clouds
Visibility: 10 km
Cloud details: Few Clouds 1402 m
2020/07/06 17:20 EBBR 061720Z 31014KT 290V360 9999 FEW046 17/07 Q1021 NOSIG
 
EBDT - Schaffen, Belgium
Distance from station: ESE 26km
Updated: 2020-07-06 19:25
Mostly cloudy
Mostly cloudy
 Wind from NW
Wind: NW 20 km/h
Temperature: 17°C
Dew Point: 8°C
Humidity: 56%
Barometer: 1020 hPa
Clouds: Mostly cloudy
Visibility: 10 km
Cloud details: Few Clouds 1372 m
Mostly cloudy 1981 m
2020/07/06 17:25 EBDT 061725Z AUTO 32011KT 9999 FEW045/// BKN065/// 17/08 Q1020 BLU
EBBE - Beauvechain, Belgium
Distance from station: S 36km
Updated: 2020-07-06 19:25
Mostly cloudy
Mostly cloudy
 Wind from WNW
Wind: WNW 19 km/h
Temperature: 17°C
Dew Point: 7°C
Humidity: 52%
Barometer: 1021 hPa
Clouds: Mostly cloudy
Visibility: 10 km
Cloud details: Partly cloudy 1494 m
Mostly cloudy 2286 m
2020/07/06 17:25 EBBE 061725Z AUTO 30010KT 9999 SCT049/// BKN075/// 17/07 Q1021 BLU
 
EHWO - Woensdrecht Rnla, Netherlands
Distance from station: NNW 50km
Updated: 2020-07-06 19:25
Mostly cloudy
Mostly cloudy
 Wind from WNW
Wind: WNW 22 km/h
Temperature: 17°C
Dew Point: 10°C
Humidity: 64%
Barometer: 1020 hPa
Clouds: Mostly cloudy
Visibility: 10 km
Cloud details: Few Clouds 1798 m
Mostly cloudy 2012 m
2020/07/06 17:25 EHWO 061725Z AUTO 29012KT 240V350 9999 FEW059 BKN066 17/10 Q1020 BLU
EBBL - Kleine-Brogel, Belgium
Distance from station: ENE 54km
Updated: 2020-07-06 19:25
Mostly cloudy
Mostly cloudy
 Wind from NW
Wind: NW 13 km/h
Temperature: 17°C
Dew Point: 10°C
Humidity: 64%
Barometer: 1020 hPa
Clouds: Mostly cloudy
Visibility: 10 km
Cloud details: Few Clouds 1372 m
Partly cloudy 1585 m
Mostly cloudy 2438 m
2020/07/06 17:25 EBBL 061725Z AUTO 32007KT 9999 FEW045/// SCT052/// BKN080/// 17/10 Q1020 BLU
 
EHGR - Gilze-Rijen Rnla, Netherlands
Distance from station: NNE 57km
Updated: 2020-07-06 19:25
Mostly cloudy
Mostly cloudy
 Wind from W
Wind: W 20 km/h
Temperature: 17°C
Dew Point: 10°C
Humidity: 64%
Barometer: 1020 hPa
Clouds: Mostly cloudy
Visibility: 10 km
Cloud details: Few Clouds 792 m
Partly cloudy 975 m
Mostly cloudy 1829 m
2020/07/06 17:25 EHGR 061725Z AUTO 27011KT 240V320 9999 FEW026 SCT032 BKN060 17/10 Q1020 BLU
EHEH - Eindhoven Rnlafb, Netherlands
Distance from station: NE 63km
Updated: 2020-07-06 19:25
Overcast
Overcast
 Wind from W
Wind: W 13 km/h
Temperature: 15°C
Dew Point: 12°C
Humidity: 82%
Barometer: 1020 hPa
Clouds: Overcast
Visibility: 10 km
Cloud details: Mostly cloudy 1646 m
Overcast 1829 m
2020/07/06 17:25 EHEH 061725Z AUTO 28007KT 240V320 9999 BKN054 OVC060 15/12 Q1020 BLU 28014G28KT 9999 SCT040 BKN050 TEMPO 4500 SHRA SCT020CB SCT030
 
EBCI - Charleroi, Belgium
Distance from station: SSW 70km
Updated: 2020-07-06 19:20
Few Clouds
Few Clouds
 Wind from WNW
Wind: WNW 13 km/h
Temperature: 17°C
Dew Point: 7°C
Humidity: 52%
Barometer: 1021 hPa
Clouds: Few Clouds
Visibility: 10 km
Cloud details: Few Clouds 1433 m
2020/07/06 17:20 EBCI 061720Z 29007KT 250V350 9999 FEW047 17/07 Q1021 NOSIG
EBLG - Bierset, Belgium
Distance from station: SE 72km
Updated: 2020-07-06 19:20
Clear
Clear
 Wind from WNW
Wind: WNW 19 km/h
Temperature: 17°C
Dew Point: 5°C
Humidity: 45%
Barometer: 1020 hPa
Summary: Clear
Visibility: greater than 10 km
2020/07/06 17:20 EBLG 061720Z 30010KT 270V340 CAVOK 17/05 Q1020 NOSIG
Benelux Weer Netwerk cwop awekas hwa wcloud pwsweather wow wow